This is the latest recevied weather packets stored in our database for station/object WX1NWA. If no packets are shown the sender has not sent any weather packets the latest 10 day(s).
| Time | Temp. | Humidity | Pressure | Rain* | Wind** | Luminosity | Snow |
|---|---|---|---|---|---|---|---|
| 1777587326 | 13.89° C | 56% | 1018.5 hPa | 0 mm | - | 149 W/m² | - |
| 1777587021 | 13.89° C | 57% | 1018.5 hPa | 0 mm | - | 176 W/m² | - |
| 1777586717 | 13.89° C | 57% | 1018.6 hPa | 0 mm | - | 227 W/m² | - |
| 1777586414 | 13.33° C | 60% | 1018.8 hPa | 0 mm | - | 180 W/m² | - |
| 1777586113 | 13.33° C | 59% | 1018.5 hPa | 0 mm | - | 171 W/m² | - |
| 1777585812 | 13.89° C | 57% | 1018.4 hPa | 0 mm | - | 205 W/m² | - |
| 1777585512 | 13.89° C | 57% | 1018.7 hPa | 0 mm | - | 233 W/m² | - |
| 1777585207 | 13.89° C | 55% | 1018.7 hPa | 0 mm | - | 209 W/m² | - |
| 1777584903 | 13.89° C | 54% | 1018.6 hPa | 0 mm | - | 215 W/m² | - |
| 1777584601 | 14.44° C | 54% | 1019 hPa | 0 mm | - | 349 W/m² | - |
| 1777584298 | 14.44° C | 52% | 1019 hPa | 0 mm | - | 547 W/m² | - |
| 1777583992 | 14.44° C | 54% | 1019 hPa | 0 mm | - | 402 W/m² | - |
| 1777583687 | 13.89° C | 59% | 1019 hPa | 0 mm | - | 512 W/m² | - |
| 1777583387 | 13.33° C | 60% | 1018.8 hPa | 0 mm | - | 331 W/m² | - |
| 1777583086 | 15° C | 55% | 1019 hPa | 0 mm | - | 451 W/m² | - |
| 1777582783 | 13.89° C | 59% | 1019.1 hPa | 0 mm | - | 381 W/m² | - |
| 1777582478 | 13.89° C | 59% | 1019.1 hPa | 0 mm | - | 572 W/m² | - |
| 1777582173 | 14.44° C | 61% | 1018.7 hPa | 0 mm | - | 347 W/m² | - |
| 1777581872 | 13.89° C | 60% | 1019 hPa | 0 mm | - | 315 W/m² | - |
| 1777581567 | 14.44° C | 59% | 1019 hPa | 0 mm | - | 306 W/m² | - |
| 1777581262 | 13.89° C | 61% | 1019 hPa | 0 mm | - | 393 W/m² | - |
| 1777580957 | 14.44° C | 62% | 1019 hPa | 0 mm | - | 239 W/m² | - |
| 1777580657 | 13.89° C | 62% | 1019 hPa | 0 mm | - | 291 W/m² | - |
| 1777580352 | 13.89° C | 60% | 1019.1 hPa | 0 mm | - | 383 W/m² | - |
| 1777580049 | 13.89° C | 60% | 1018.8 hPa | 0 mm | - | 432 W/m² | - |
* Rain latest hour (hover to see other rain measurements)
** Current wind speed in m/s (hover to see current wind gust speed)